createdAt,value
2023-02-22T00:02:10.907Z,8.57
2023-02-22T00:05:15.619Z,8.63
2023-02-22T00:08:17.893Z,8.57
2023-02-22T00:11:20.683Z,8.23
2023-02-22T00:14:22.298Z,9.60
2023-02-22T00:17:23.872Z,8.80
2023-02-22T00:20:25.735Z,8.95
2023-02-22T00:23:29.691Z,8.60
2023-02-22T00:26:33.933Z,9.15
2023-02-22T00:29:35.542Z,10.33
2023-02-22T00:32:37.192Z,9.30
2023-02-22T00:35:39.216Z,9.25
2023-02-22T00:38:42.068Z,7.70
2023-02-22T00:41:44.021Z,8.68
2023-02-22T00:44:45.767Z,8.20
2023-02-22T00:47:47.913Z,9.27
2023-02-22T00:50:49.600Z,9.50
2023-02-22T00:53:51.252Z,8.57
2023-02-22T00:56:53.357Z,10.43
2023-02-22T00:59:55.016Z,8.57
2023-02-22T01:02:57.002Z,9.25
2023-02-22T01:05:58.859Z,8.68
2023-02-22T01:09:02.207Z,8.18
2023-02-22T01:12:04.133Z,9.25
2023-02-22T01:15:10.487Z,9.10
2023-02-22T01:18:12.991Z,10.82
2023-02-22T01:21:15.064Z,8.15
2023-02-22T01:24:18.124Z,8.82
2023-02-22T01:27:19.794Z,8.50
2023-02-22T01:30:24.375Z,9.10
2023-02-22T01:33:26.002Z,7.72
2023-02-22T01:36:27.684Z,10.15
2023-02-22T01:39:29.321Z,8.35
2023-02-22T01:42:30.902Z,8.57
2023-02-22T01:45:35.300Z,9.50
2023-02-22T01:48:47.853Z,8.23
2023-02-22T01:51:53.064Z,9.18
2023-02-22T01:54:58.305Z,9.00
2023-02-22T01:58:00.018Z,9.27
2023-02-22T02:01:01.645Z,8.70
2023-02-22T02:04:07.660Z,8.80
2023-02-22T02:07:12.753Z,8.95
2023-02-22T02:10:15.720Z,8.93
2023-02-22T02:13:17.436Z,8.60
2023-02-22T02:16:19.257Z,7.97
2023-02-22T02:19:30.240Z,9.30
2023-02-22T02:22:47.093Z,8.73
2023-02-22T02:26:06.982Z,9.20
2023-02-22T02:29:27.287Z,9.00
2023-02-22T02:32:35.696Z,9.40
2023-02-22T02:35:40.281Z,8.70
2023-02-22T02:38:59.318Z,9.35
2023-02-22T02:42:06.211Z,10.32
2023-02-22T02:45:24.856Z,8.60
2023-02-22T02:48:28.961Z,9.23
2023-02-22T02:51:37.390Z,8.90
2023-02-22T02:54:40.553Z,9.75
2023-02-22T02:57:42.176Z,8.43
2023-02-22T03:00:45.229Z,9.05
2023-02-22T03:04:14.455Z,10.10
2023-02-22T03:07:47.063Z,8.25
2023-02-22T03:11:17.741Z,12.15
2023-02-22T03:14:29.879Z,9.60
2023-02-22T03:17:54.212Z,9.10
2023-02-22T03:21:05.293Z,9.23
2023-02-22T03:24:13.272Z,10.68
2023-02-22T03:27:25.980Z,9.05
2023-02-22T03:30:39.346Z,9.05
2023-02-22T03:33:45.336Z,9.60
2023-02-22T03:36:59.035Z,11.93
2023-02-22T03:40:02.171Z,9.70
2023-02-22T03:43:09.048Z,8.48
2023-02-22T03:46:12.509Z,9.18
2023-02-22T03:49:30.141Z,9.13
2023-02-22T03:52:31.801Z,9.23
2023-02-22T03:55:34.889Z,9.82
2023-02-22T03:58:38.777Z,10.48
2023-02-22T04:01:40.456Z,10.80
2023-02-22T04:04:42.196Z,10.63
2023-02-22T04:07:43.910Z,10.80
2023-02-22T04:10:45.766Z,11.45
2023-02-22T04:13:47.518Z,11.52
2023-02-22T04:16:49.112Z,10.90
2023-02-22T04:19:51.414Z,12.15
2023-02-22T04:22:54.136Z,12.20
2023-02-22T04:25:57.087Z,11.32
2023-02-22T04:28:58.664Z,11.40
2023-02-22T04:32:00.276Z,9.88
2023-02-22T04:35:02.070Z,10.68
2023-02-22T04:38:04.404Z,10.07
2023-02-22T04:41:06.052Z,10.73
2023-02-22T04:44:07.871Z,10.48
2023-02-22T04:47:09.569Z,9.95
2023-02-22T04:50:12.812Z,10.45
2023-02-22T04:53:14.455Z,10.83
2023-02-22T04:56:19.883Z,11.23
2023-02-22T04:59:21.578Z,11.20
2023-02-22T05:02:23.362Z,11.90
2023-02-22T05:05:25.099Z,11.82
2023-02-22T05:08:26.793Z,12.23
2023-02-22T05:11:29.053Z,10.02
2023-02-22T05:14:30.677Z,10.52
2023-02-22T05:17:32.263Z,9.80
2023-02-22T05:20:35.613Z,11.20
2023-02-22T05:23:37.199Z,10.63
2023-02-22T05:26:38.854Z,10.43
2023-02-22T05:29:40.673Z,11.52
2023-02-22T05:32:42.256Z,11.25
2023-02-22T05:35:44.059Z,10.77
2023-02-22T05:38:45.672Z,10.60
2023-02-22T05:41:49.706Z,10.57
2023-02-22T05:44:51.330Z,11.88
2023-02-22T05:47:53.984Z,13.65
2023-02-22T05:50:56.099Z,10.80
2023-02-22T05:53:57.681Z,11.63
2023-02-22T05:56:59.444Z,11.15
2023-02-22T06:00:02.306Z,11.82
2023-02-22T06:03:06.974Z,11.05
2023-02-22T06:06:09.055Z,12.13
2023-02-22T06:09:10.659Z,11.63
2023-02-22T06:12:12.369Z,12.27
2023-02-22T06:15:18.455Z,12.82
2023-02-22T06:18:20.159Z,11.95
2023-02-22T06:21:21.927Z,12.50
2023-02-22T06:24:23.977Z,12.13
2023-02-22T06:27:25.572Z,12.30
2023-02-22T06:30:27.710Z,10.80
2023-02-22T06:33:29.350Z,13.27
2023-02-22T06:36:31.659Z,10.48
2023-02-22T06:39:33.293Z,12.23
2023-02-22T06:42:35.117Z,11.00
2023-02-22T06:45:36.817Z,10.40
2023-02-22T06:48:40.155Z,12.38
2023-02-22T06:51:41.883Z,12.02
2023-02-22T06:54:43.566Z,10.73
2023-02-22T06:57:45.235Z,12.15
2023-02-22T07:00:46.876Z,12.38
2023-02-22T07:03:51.585Z,16.88
2023-02-22T07:06:53.222Z,12.05
2023-02-22T07:09:54.863Z,12.33
2023-02-22T07:12:56.655Z,12.38
2023-02-22T07:15:58.326Z,13.45
2023-02-22T07:19:03.291Z,10.95
2023-02-22T07:22:06.205Z,13.23
2023-02-22T07:25:12.158Z,12.70
2023-02-22T07:28:13.787Z,12.25
2023-02-22T07:31:16.265Z,10.38
2023-02-22T07:34:18.461Z,11.20
2023-02-22T07:37:21.292Z,10.98
2023-02-22T07:40:24.272Z,11.83
2023-02-22T07:43:29.071Z,10.77
2023-02-22T07:46:30.715Z,11.90
2023-02-22T07:49:32.366Z,11.48
2023-02-22T07:52:34.003Z,11.23
2023-02-22T07:55:35.647Z,10.00
2023-02-22T07:58:37.442Z,11.27
2023-02-22T08:01:39.078Z,10.50
2023-02-22T08:04:40.658Z,11.88
2023-02-22T08:07:43.302Z,10.80
2023-02-22T08:10:45.062Z,10.83
2023-02-22T08:13:46.843Z,8.95
2023-02-22T08:16:48.525Z,10.18
2023-02-22T08:19:50.174Z,10.55
2023-02-22T08:22:51.927Z,9.45
2023-02-22T08:25:54.508Z,9.80
2023-02-22T08:28:57.002Z,10.93
2023-02-22T08:31:58.791Z,11.85
2023-02-22T08:35:01.389Z,8.23
2023-02-22T08:38:06.040Z,7.45
2023-02-22T08:41:07.621Z,6.73
2023-02-22T08:44:09.309Z,7.95
2023-02-22T08:47:10.968Z,8.13
2023-02-22T08:50:24.579Z,8.23
2023-02-22T08:53:26.278Z,11.25
2023-02-22T08:56:29.466Z,6.27
2023-02-22T08:59:31.067Z,6.25
2023-02-22T09:02:32.638Z,6.65
2023-02-22T09:05:34.300Z,7.00
2023-02-22T09:08:35.881Z,7.10
2023-02-22T09:11:37.537Z,7.40
2023-02-22T09:14:39.330Z,6.20
2023-02-22T09:17:40.962Z,7.07
2023-02-22T09:20:43.648Z,6.53
2023-02-22T09:23:47.599Z,6.97
2023-02-22T09:26:54.095Z,6.53
2023-02-22T09:29:56.353Z,10.13
2023-02-22T09:33:01.475Z,6.65
2023-02-22T09:36:03.411Z,6.13
2023-02-22T09:39:05.198Z,7.47
2023-02-22T09:42:20.849Z,6.63
2023-02-22T09:45:40.417Z,30.95
2023-02-22T09:49:13.951Z,5.65
2023-02-22T09:52:24.595Z,9.50
2023-02-22T09:55:37.988Z,5.70
2023-02-22T09:58:49.139Z,4.90
2023-02-22T10:01:59.378Z,6.22
2023-02-22T10:05:10.591Z,6.30
2023-02-22T10:08:15.986Z,6.38
2023-02-22T10:11:35.013Z,6.60
2023-02-22T10:14:56.167Z,7.10
2023-02-22T10:18:09.777Z,6.60
2023-02-22T10:21:31.103Z,6.85
2023-02-22T10:24:45.544Z,7.53
2023-02-22T10:28:05.814Z,6.85
2023-02-22T10:31:09.444Z,6.90
2023-02-22T10:34:23.595Z,6.82
2023-02-22T10:37:34.643Z,15.48
2023-02-22T10:40:39.339Z,15.23
2023-02-22T10:43:43.012Z,17.88
2023-02-22T10:46:45.998Z,15.37
2023-02-22T10:49:52.173Z,16.00
2023-02-22T10:52:55.228Z,15.75
2023-02-22T10:56:12.875Z,18.35
2023-02-22T10:59:32.906Z,15.35
2023-02-22T11:02:35.997Z,16.40
2023-02-22T11:05:40.057Z,16.15
2023-02-22T11:08:41.693Z,17.05
2023-02-22T11:11:46.907Z,15.50
2023-02-22T11:14:48.580Z,18.17
2023-02-22T11:17:52.075Z,16.80
2023-02-22T11:21:02.000Z,19.73
2023-02-22T11:24:15.693Z,17.38
2023-02-22T11:27:38.287Z,17.30
2023-02-22T11:30:40.107Z,19.38
2023-02-22T11:33:52.517Z,16.33
2023-02-22T11:36:54.233Z,16.92
2023-02-22T11:40:07.960Z,19.15
2023-02-22T11:43:18.463Z,19.85
2023-02-22T11:46:26.696Z,19.70
2023-02-22T11:49:36.813Z,16.50
2023-02-22T11:52:45.960Z,17.85
2023-02-22T11:55:53.722Z,18.58
2023-02-22T11:59:17.185Z,8.30
2023-02-22T12:02:57.002Z,3.97
2023-02-22T12:06:45.183Z,3.03
2023-02-22T12:10:31.677Z,2.53
2023-02-22T12:13:37.159Z,3.67
2023-02-22T12:16:50.840Z,2.42
2023-02-22T12:19:52.520Z,4.80
2023-02-22T12:23:06.867Z,4.10
2023-02-22T12:26:34.454Z,4.57
2023-02-22T12:29:42.084Z,3.28
2023-02-22T12:32:51.391Z,6.75
2023-02-22T12:35:56.668Z,4.85
2023-02-22T12:39:07.547Z,4.83
2023-02-22T12:42:18.175Z,4.20
2023-02-22T12:45:53.460Z,4.50
2023-02-22T12:49:15.307Z,4.20
2023-02-22T12:52:22.379Z,4.97
2023-02-22T12:55:35.453Z,5.17
2023-02-22T12:58:48.067Z,4.15
2023-02-22T13:01:56.886Z,4.40
2023-02-22T13:05:00.206Z,4.47
2023-02-22T13:08:37.129Z,4.35
2023-02-22T13:12:06.220Z,3.93
2023-02-22T13:15:28.122Z,4.03
2023-02-22T13:18:48.128Z,4.18
2023-02-22T13:22:19.068Z,4.03
2023-02-22T13:25:58.070Z,4.88
2023-02-22T13:29:10.178Z,3.40
2023-02-22T13:32:51.558Z,3.45
2023-02-22T13:36:20.958Z,4.32
2023-02-22T13:39:28.176Z,3.88
2023-02-22T13:42:48.193Z,3.15
2023-02-22T13:46:12.817Z,3.73
2023-02-22T13:49:33.345Z,3.30
2023-02-22T13:52:40.029Z,4.28
2023-02-22T13:55:43.672Z,4.70
2023-02-22T13:58:55.300Z,4.35
2023-02-22T14:01:58.366Z,5.97
2023-02-22T14:04:59.962Z,5.50
2023-02-22T14:08:01.685Z,6.07
2023-02-22T14:11:06.083Z,5.90
2023-02-22T14:14:07.638Z,7.93
2023-02-22T14:17:26.187Z,7.50
2023-02-22T14:20:36.910Z,6.22
2023-02-22T14:23:41.688Z,6.63
2023-02-22T14:26:59.396Z,6.57
2023-02-22T14:30:01.187Z,6.00
2023-02-22T14:33:03.413Z,5.73
2023-02-22T14:36:05.410Z,7.97
2023-02-22T14:39:14.498Z,6.10
2023-02-22T14:42:28.292Z,6.28
2023-02-22T14:45:36.526Z,6.60
2023-02-22T14:48:42.944Z,5.77
2023-02-22T14:51:53.922Z,10.60
2023-02-22T14:55:20.063Z,15.65
2023-02-22T14:58:25.869Z,15.10
2023-02-22T15:01:49.046Z,16.58
2023-02-22T15:04:56.444Z,15.20
2023-02-22T15:08:02.129Z,12.38
2023-02-22T15:11:03.842Z,12.82
2023-02-22T15:14:26.300Z,13.50
2023-02-22T15:17:28.395Z,23.88
2023-02-22T15:20:30.339Z,14.83
2023-02-22T15:23:44.572Z,17.83
2023-02-22T15:27:00.846Z,15.38
2023-02-22T15:30:07.870Z,16.75
2023-02-22T15:33:24.395Z,15.73
2023-02-22T15:36:30.916Z,14.50
2023-02-22T15:39:34.568Z,14.30
2023-02-22T15:42:48.884Z,14.75
2023-02-22T15:45:54.656Z,13.82
2023-02-22T15:49:11.666Z,13.02
2023-02-22T15:52:21.370Z,16.93
2023-02-22T15:55:26.562Z,22.13
2023-02-22T15:58:30.099Z,15.52
2023-02-22T16:01:40.694Z,14.90
2023-02-22T16:04:51.272Z,16.30
2023-02-22T16:07:59.778Z,17.50
2023-02-22T16:11:05.908Z,20.08
2023-02-22T16:14:24.195Z,17.77
2023-02-22T16:17:49.508Z,17.25
2023-02-22T16:21:00.600Z,18.17
2023-02-22T16:24:15.098Z,17.63
2023-02-22T16:27:20.058Z,17.40
2023-02-22T16:30:32.506Z,19.10
2023-02-22T16:33:34.312Z,16.20
2023-02-22T16:36:50.582Z,16.80
2023-02-22T16:39:52.350Z,20.07
2023-02-22T16:42:53.993Z,19.02
2023-02-22T16:45:55.913Z,20.00
2023-02-22T16:49:03.322Z,16.60
2023-02-22T16:52:07.332Z,18.33
2023-02-22T16:55:20.427Z,20.20
2023-02-22T16:58:22.118Z,18.70
2023-02-22T17:01:23.867Z,18.67
2023-02-22T17:04:26.591Z,18.98
2023-02-22T17:07:30.835Z,18.63
2023-02-22T17:10:34.112Z,18.17
2023-02-22T17:13:35.891Z,17.65
2023-02-22T17:16:37.562Z,18.88
2023-02-22T17:19:39.236Z,19.60
2023-02-22T17:22:40.909Z,18.08
2023-02-22T17:25:51.228Z,20.07
2023-02-22T17:28:52.814Z,20.38
2023-02-22T17:31:55.320Z,18.98
2023-02-22T17:34:56.937Z,20.40
2023-02-22T17:38:06.226Z,21.60
2023-02-22T17:41:08.561Z,20.10
2023-02-22T17:44:10.274Z,22.02
2023-02-22T17:47:11.950Z,21.98
2023-02-22T17:50:15.614Z,22.25
2023-02-22T17:53:21.716Z,20.08
2023-02-22T17:56:23.475Z,20.80
2023-02-22T17:59:25.163Z,21.30
2023-02-22T18:02:26.985Z,21.75
2023-02-22T18:05:29.833Z,23.17
2023-02-22T18:08:32.140Z,20.38
2023-02-22T18:11:33.835Z,19.43
2023-02-22T18:14:35.610Z,19.73
2023-02-22T18:17:38.105Z,23.38
2023-02-22T18:20:44.519Z,23.15
2023-02-22T18:23:46.214Z,22.48
2023-02-22T18:26:48.098Z,19.33
2023-02-22T18:29:49.730Z,22.30
2023-02-22T18:32:52.131Z,21.27
2023-02-22T18:35:53.773Z,21.42
2023-02-22T18:38:55.655Z,21.35
2023-02-22T18:41:57.239Z,19.77
2023-02-22T18:45:03.215Z,21.67
2023-02-22T18:48:05.046Z,21.08
2023-02-22T18:51:12.904Z,24.17
2023-02-22T18:54:14.824Z,19.20
2023-02-22T18:57:17.041Z,21.50
2023-02-22T19:00:28.728Z,19.08
2023-02-22T19:03:32.286Z,17.45
2023-02-22T19:06:36.953Z,21.30
2023-02-22T19:09:38.635Z,19.88
2023-02-22T19:12:40.520Z,20.87
2023-02-22T19:15:44.194Z,20.83
2023-02-22T19:18:46.465Z,18.00
2023-02-22T19:21:49.267Z,18.20
2023-02-22T19:24:54.111Z,18.55
2023-02-22T19:27:58.639Z,19.80
2023-02-22T19:31:22.784Z,20.42
2023-02-22T19:34:26.428Z,18.60
2023-02-22T19:37:35.749Z,19.50
2023-02-22T19:40:37.507Z,16.92
2023-02-22T19:43:39.556Z,18.20
2023-02-22T19:46:41.249Z,22.55
2023-02-22T19:49:43.372Z,19.50
2023-02-22T19:52:45.624Z,21.90
2023-02-22T19:55:47.278Z,19.02
2023-02-22T19:58:50.207Z,19.67
2023-02-22T20:01:56.043Z,21.25
2023-02-22T20:04:57.697Z,19.52
2023-02-22T20:07:59.672Z,24.00
2023-02-22T20:11:01.408Z,19.02
2023-02-22T20:14:06.400Z,26.43
2023-02-22T20:17:09.362Z,19.73
2023-02-22T20:20:13.048Z,19.05
2023-02-22T20:23:15.287Z,20.35
2023-02-22T20:26:19.615Z,22.40
2023-02-22T20:29:26.520Z,24.90
2023-02-22T20:32:30.316Z,25.88
2023-02-22T20:35:33.990Z,22.80
2023-02-22T20:38:36.341Z,21.50
2023-02-22T20:41:38.031Z,20.08
2023-02-22T20:44:39.663Z,20.17
2023-02-22T20:47:41.274Z,20.35
2023-02-22T20:50:42.919Z,18.63
2023-02-22T20:53:45.129Z,21.15
2023-02-22T20:56:47.713Z,20.80
2023-02-22T20:59:49.365Z,21.17
2023-02-22T21:02:51.549Z,21.15
2023-02-22T21:05:53.151Z,18.83
2023-02-22T21:08:57.263Z,19.85
2023-02-22T21:11:58.879Z,23.73
2023-02-22T21:15:00.809Z,19.23
2023-02-22T21:18:03.705Z,22.73
2023-02-22T21:21:10.461Z,23.25
2023-02-22T21:24:12.188Z,24.08
2023-02-22T21:27:13.969Z,20.05
2023-02-22T21:30:15.742Z,23.27
2023-02-22T21:33:17.394Z,22.40
2023-02-22T21:36:19.837Z,25.50
2023-02-22T21:39:28.155Z,23.70
2023-02-22T21:42:29.876Z,26.08
2023-02-22T21:45:31.697Z,25.73
2023-02-22T21:48:34.800Z,24.48
2023-02-22T21:51:37.839Z,23.33
2023-02-22T21:54:39.489Z,24.42
2023-02-22T21:57:42.482Z,22.00
2023-02-22T22:00:44.145Z,22.23
2023-02-22T22:03:46.493Z,23.02
2023-02-22T22:06:53.569Z,23.98
2023-02-22T22:09:56.720Z,23.60
2023-02-22T22:12:59.525Z,22.42
2023-02-22T22:16:16.451Z,22.33
2023-02-22T22:19:18.225Z,23.88
2023-02-22T22:22:20.490Z,23.80
2023-02-22T22:25:24.340Z,17.73
2023-02-22T22:28:27.036Z,21.65
2023-02-22T22:31:28.960Z,20.67
2023-02-22T22:34:30.800Z,20.13
2023-02-22T22:37:32.443Z,21.55
2023-02-22T22:40:34.368Z,23.08
2023-02-22T22:43:37.273Z,20.38
2023-02-22T22:46:42.269Z,18.83
2023-02-22T22:49:44.666Z,17.00
2023-02-22T22:52:47.177Z,19.85
2023-02-22T22:55:48.786Z,16.75
2023-02-22T22:58:52.977Z,19.92
2023-02-22T23:01:56.645Z,17.70
2023-02-22T23:04:58.290Z,17.73
2023-02-22T23:08:04.743Z,19.08
2023-02-22T23:11:09.183Z,21.42
2023-02-22T23:14:19.477Z,20.88
2023-02-22T23:17:31.318Z,23.00
2023-02-22T23:20:38.586Z,22.90
2023-02-22T23:23:41.151Z,18.98
2023-02-22T23:26:48.710Z,21.85
2023-02-22T23:29:50.353Z,22.50
2023-02-22T23:32:53.573Z,22.33
2023-02-22T23:35:55.228Z,21.02
2023-02-22T23:38:56.925Z,19.88
2023-02-22T23:42:03.335Z,21.95
2023-02-22T23:45:05.355Z,19.45
2023-02-22T23:48:07.039Z,18.33
2023-02-22T23:51:10.349Z,19.13
2023-02-22T23:54:14.820Z,20.73
2023-02-22T23:57:17.608Z,21.00
